»·PEaware :: N32196 KFOT-KRDD

N32196 :: KFOT-KRDD

FLIGHT INFORMATION

Flight Status: Arrived
Operator: Privately registered:
United States
More flights under this callsign
Pilot: Gary H. (18965)
Aircraft: PIPER PA-28R-201 ARROW
(P28R)
More flights by this aircraft type
Origin: KFOT Rohnerville
United States
Destination: KRDD Redding Mun
United States
More flights between these airports :: More routes between these airports
Route: +FOT
File this flight plan on PilotEdge
Remarks:
Altitude:
(Current/Filed)
9,000ft
Speed:
(Current/Filed)
120kts
Departed: 07-Sep-20 05:10 PM
Arrived: 07-Sep-20 06:08 PM
Distance/Time
Traveled:
84nm/0:58
Distance/Time
To Go:
Arrived

Flight Plot

Page will automatically refresh every two minutes.

Flight plan parsing failed; only flown route is shown


Map Options




Map Legend


Flown Route
Filed Route
Departure Airport
Arrival Airport
Navaid (VOR, NDB)
Fix

Horizontal Profiles

Position Reports

Time Latitude Longitude Heading Altitude Ground
Speed
07-Sep-20 16:57 40.554683 -124.131659 199 356ft 0kts
07-Sep-20 16:58 40.554683 -124.131659 199 356ft 0kts
07-Sep-20 16:59 40.554683 -124.131659 199 356ft 0kts
07-Sep-20 17:00 40.554683 -124.131659 199 356ft 0kts
07-Sep-20 17:01 40.553978 -124.131559 129 358ft 7kts
07-Sep-20 17:02 40.552262 -124.128617 128 361ft 16kts
07-Sep-20 17:03 40.551123 -124.126631 177 358ft 0kts
07-Sep-20 17:04 40.551123 -124.126630 177 358ft 0kts
07-Sep-20 17:05 40.551123 -124.126631 177 358ft 0kts
07-Sep-20 17:06 40.551123 -124.126631 177 358ft 0kts
07-Sep-20 17:07 40.551123 -124.126631 177 358ft 0kts
07-Sep-20 17:08 40.551123 -124.126631 177 358ft 0kts
07-Sep-20 17:09 40.554316 -124.133081 313 498ft 73kts
07-Sep-20 17:10 40.574142 -124.156233 325 1348ft 108kts
07-Sep-20 17:11 40.600169 -124.174265 329 2108ft 100kts
07-Sep-20 17:12 40.623083 -124.192929 323 2897ft 92kts
07-Sep-20 17:13 40.644668 -124.211480 322 3643ft 93kts
07-Sep-20 17:14 40.667305 -124.227313 2 4295ft 101kts
07-Sep-20 17:15 40.673553 -124.191529 91 4981ft 114kts
07-Sep-20 17:16 40.669788 -124.150003 90 5665ft 114kts
07-Sep-20 17:17 40.666302 -124.108148 89 6295ft 116kts
07-Sep-20 17:18 40.662840 -124.065451 89 6858ft 118kts
07-Sep-20 17:19 40.659256 -124.022181 89 7380ft 119kts
07-Sep-20 17:20 40.655529 -123.978547 89 8036ft 120kts
07-Sep-20 17:21 40.651643 -123.934396 89 8656ft 122kts
07-Sep-20 17:22 40.647672 -123.888398 89 9007ft 136kts
07-Sep-20 17:23 40.643758 -123.837771 89 9051ft 140kts
07-Sep-20 17:24 40.639849 -123.786316 89 9022ft 140kts
07-Sep-20 17:25 40.635913 -123.735107 89 9030ft 140kts
07-Sep-20 17:26 40.631926 -123.683171 89 9065ft 145kts
07-Sep-20 17:27 40.627928 -123.629953 89 9031ft 146kts
07-Sep-20 17:28 40.623885 -123.576501 89 9002ft 146kts
07-Sep-20 17:29 40.619833 -123.523246 89 8976ft 146kts
07-Sep-20 17:30 40.615737 -123.470958 89 9077ft 144kts
07-Sep-20 17:31 40.611595 -123.418505 89 9147ft 143kts
07-Sep-20 17:32 40.607424 -123.366089 89 9207ft 143kts
07-Sep-20 17:33 40.603327 -123.313330 90 9191ft 145kts
07-Sep-20 17:34 40.599481 -123.259992 90 9125ft 146kts
07-Sep-20 17:35 40.595916 -123.206411 90 9042ft 147kts
07-Sep-20 17:36 40.592222 -123.155066 92 9423ft 136kts
07-Sep-20 17:37 40.587607 -123.105771 92 9827ft 135kts
07-Sep-20 17:38 40.582794 -123.055969 92 10089ft 139kts
07-Sep-20 17:39 40.577837 -123.004519 92 10133ft 144kts
07-Sep-20 17:40 40.572837 -122.951703 92 10105ft 145kts
07-Sep-20 17:41 40.567809 -122.898287 92 10067ft 147kts
07-Sep-20 17:42 40.558757 -122.846129 116 10072ft 143kts
07-Sep-20 17:43 40.537744 -122.800652 120 10079ft 149kts
07-Sep-20 17:44 40.515921 -122.754638 121 10027ft 148kts
07-Sep-20 17:45 40.493778 -122.708976 121 10020ft 148kts
07-Sep-20 17:46 40.471578 -122.663237 122 9871ft 153kts
07-Sep-20 17:47 40.448564 -122.615325 121 9417ft 156kts
07-Sep-20 17:48 40.424892 -122.565460 122 8606ft 164kts
07-Sep-20 17:49 40.401329 -122.515161 122 7835ft 160kts
07-Sep-20 17:50 40.377963 -122.464800 122 6958ft 160kts
07-Sep-20 17:51 40.354031 -122.417373 124 6336ft 152kts
07-Sep-20 17:52 40.330559 -122.371307 125 5824ft 150kts
07-Sep-20 17:53 40.307727 -122.325638 125 5349ft 148kts
07-Sep-20 17:54 40.280630 -122.294507 184 5218ft 123kts
07-Sep-20 17:55 40.247055 -122.303271 204 5062ft 123kts
07-Sep-20 17:56 40.215329 -122.306879 128 4980ft 137kts
07-Sep-20 17:57 40.236071 -122.279168 352 5113ft 128kts
07-Sep-20 17:58 40.272402 -122.288437 338 4778ft 141kts
07-Sep-20 17:59 40.310711 -122.297446 355 4241ft 144kts
07-Sep-20 18:00 40.350295 -122.294393 358 3549ft 116kts
07-Sep-20 18:01 40.378955 -122.293595 352 2679ft 102kts
07-Sep-20 18:02 40.407169 -122.293907 354 1834ft 98kts
07-Sep-20 18:03 40.432582 -122.294849 354 1606ft 80kts
07-Sep-20 18:04 40.455627 -122.294364 354 1511ft 91kts
07-Sep-20 18:05 40.481097 -122.294882 353 956ft 84kts
07-Sep-20 18:06 40.503996 -122.294889 355 500ft 68kts
07-Sep-20 18:07 40.508286 -122.295857 301 495ft 0kts
07-Sep-20 18:08 40.508286 -122.295857 301 495ft 0kts

Navigation Log

Ident Type
Flight plan parsing failed, navigation log unavailable